RYR50XY LFMU-EGGW
Flight info
| Callsign | RYR50XY |
|---|---|
| Flight time | 1h 35m |
| Altitude | 38000 |
| Route | FJR DCT NG DCT MOLEN DCT MTL DCT ETREK DCT MADOT DCT MOPEM DCT CACHI DCT AVLON DCT OKRIX DCT BRY DCT CLM DCT KOPOR DCT PIREG DCT SOSUN DCT SUBIP UM733 UNDUG |
| Aircraft | B738/M-SDE2E3FGHIRWXY/LB1 |
Departure
| Time | 2026-04-23 10:48 |
|---|---|
| Airport | Béziers Vias airport (LFMU) |
Arrival
| Time | 2026-04-23 12:23 |
|---|---|
| Airport | London Luton Airport (EGGW) |
| Time | Latitude | Longitude | Altitude | Speed | Heading |
|---|---|---|---|---|---|
| 2026-04-23 10:38 | 43.32146 | 3.35381 | 55 ft | 0 kts | 147° |
| 2026-04-23 10:43 | 43.32144 | 3.35386 | 55 ft | 1 kts | 117° |
| 2026-04-23 10:43 | 43.32148 | 3.35396 | 49 ft | 4 kts | 61° |
| 2026-04-23 10:44 | 43.32171 | 3.35409 | 53 ft | 2 kts | 312° |
| 2026-04-23 10:44 | 43.32195 | 3.35334 | 55 ft | 15 kts | 323° |
| 2026-04-23 10:44 | 43.32313 | 3.35323 | 51 ft | 18 kts | 332° |
| 2026-04-23 10:44 | 43.32341 | 3.35169 | 56 ft | 18 kts | 278° |
| 2026-04-23 10:45 | 43.32361 | 3.35005 | 57 ft | 17 kts | 275° |
| 2026-04-23 10:45 | 43.32369 | 3.34845 | 53 ft | 16 kts | 275° |
| 2026-04-23 10:45 | 43.32378 | 3.34693 | 58 ft | 16 kts | 274° |
| 2026-04-23 10:45 | 43.32386 | 3.34545 | 59 ft | 15 kts | 275° |
| 2026-04-23 10:46 | 43.32395 | 3.34403 | 56 ft | 15 kts | 274° |
| 2026-04-23 10:46 | 43.32396 | 3.34266 | 54 ft | 14 kts | 255° |
| 2026-04-23 10:46 | 43.32386 | 3.34182 | 56 ft | 1 kts | 311° |
| 2026-04-23 10:46 | 43.32399 | 3.34192 | 58 ft | 5 kts | 45° |
| 2026-04-23 10:47 | 43.32403 | 3.34251 | 56 ft | 0 kts | 94° |
| 2026-04-23 10:47 | 43.32403 | 3.34254 | 56 ft | 1 kts | 94° |
| 2026-04-23 10:47 | 43.32389 | 3.34494 | 59 ft | 68 kts | 95° |
| 2026-04-23 10:47 | 43.32328 | 3.35558 | 109 ft | 146 kts | 96° |
| 2026-04-23 10:48 | 43.32240 | 3.37063 | 897 ft | 165 kts | 95° |
| 2026-04-23 10:48 | 43.32318 | 3.38551 | 2240 ft | 156 kts | 71° |
| 2026-04-23 10:48 | 43.33017 | 3.39764 | 3214 ft | 164 kts | 54° |
| 2026-04-23 10:48 | 43.33777 | 3.41032 | 3836 ft | 185 kts | 58° |
| 2026-04-23 10:49 | 43.34643 | 3.42562 | 4122 ft | 217 kts | 57° |
| 2026-04-23 10:49 | 43.35629 | 3.44303 | 4447 ft | 239 kts | 56° |
| 2026-04-23 10:49 | 43.36668 | 3.46131 | 4931 ft | 257 kts | 56° |
| 2026-04-23 10:49 | 43.37802 | 3.48129 | 5553 ft | 270 kts | 55° |
| 2026-04-23 10:50 | 43.38952 | 3.50158 | 6679 ft | 266 kts | 54° |
| 2026-04-23 10:50 | 43.40098 | 3.52186 | 7553 ft | 272 kts | 54° |
| 2026-04-23 10:50 | 43.41275 | 3.54278 | 8422 ft | 278 kts | 53° |
| 2026-04-23 10:50 | 43.42460 | 3.56388 | 9288 ft | 284 kts | 52° |
| 2026-04-23 10:51 | 43.43682 | 3.58564 | 9955 ft | 288 kts | 52° |
| 2026-04-23 10:51 | 43.44768 | 3.60890 | 10264 ft | 291 kts | 60° |
| 2026-04-23 10:51 | 43.45700 | 3.63432 | 10434 ft | 309 kts | 63° |
| 2026-04-23 10:51 | 43.46655 | 3.66188 | 10699 ft | 333 kts | 63° |
| 2026-04-23 10:52 | 43.47676 | 3.69135 | 11318 ft | 344 kts | 63° |
| 2026-04-23 10:52 | 43.48731 | 3.72150 | 12127 ft | 348 kts | 62° |
| 2026-04-23 10:52 | 43.49786 | 3.75130 | 13040 ft | 350 kts | 62° |
| 2026-04-23 10:52 | 43.50867 | 3.78158 | 13892 ft | 354 kts | 61° |
| 2026-04-23 10:53 | 43.51969 | 3.81231 | 14631 ft | 359 kts | 61° |
| 2026-04-23 10:53 | 43.53091 | 3.84351 | 15137 ft | 374 kts | 60° |
| 2026-04-23 10:53 | 43.54272 | 3.87637 | 15652 ft | 384 kts | 60° |
| 2026-04-23 10:53 | 43.55457 | 3.90942 | 16352 ft | 389 kts | 60° |
| 2026-04-23 10:54 | 43.56263 | 3.93192 | 16860 ft | 391 kts | 60° |
| 2026-04-23 10:54 | 43.57908 | 3.97634 | 17861 ft | 392 kts | 54° |
| 2026-04-23 10:54 | 43.59000 | 3.99627 | 18340 ft | 391 kts | 45° |
| 2026-04-23 10:54 | 43.61460 | 4.03376 | 19209 ft | 395 kts | 43° |
| 2026-04-23 10:55 | 43.63316 | 4.06130 | 19807 ft | 399 kts | 43° |
| 2026-04-23 10:55 | 43.64574 | 4.08005 | 20252 ft | 401 kts | 44° |
| 2026-04-23 10:55 | 43.67105 | 4.11824 | 21083 ft | 406 kts | 44° |
| 2026-04-23 10:55 | 43.68394 | 4.13790 | 21499 ft | 408 kts | 44° |
| 2026-04-23 10:56 | 43.70285 | 4.16695 | 22086 ft | 411 kts | 45° |
| 2026-04-23 10:56 | 43.72213 | 4.19668 | 22642 ft | 415 kts | 45° |
| 2026-04-23 10:56 | 43.74155 | 4.22674 | 23203 ft | 419 kts | 45° |
| 2026-04-23 10:56 | 43.76087 | 4.25667 | 23766 ft | 423 kts | 45° |
| 2026-04-23 10:57 | 43.78060 | 4.28726 | 24242 ft | 426 kts | 45° |
| 2026-04-23 10:57 | 43.80046 | 4.31807 | 24713 ft | 428 kts | 45° |
| 2026-04-23 10:57 | 43.82012 | 4.34859 | 25165 ft | 431 kts | 45° |
| 2026-04-23 10:57 | 43.84062 | 4.37907 | 25611 ft | 432 kts | 39° |
| 2026-04-23 10:58 | 43.86430 | 4.40503 | 26058 ft | 430 kts | 30° |
| 2026-04-23 10:58 | 43.89035 | 4.42536 | 26488 ft | 428 kts | 20° |
| 2026-04-23 10:58 | 43.91811 | 4.44067 | 26925 ft | 429 kts | 17° |
| 2026-04-23 10:58 | 43.94613 | 4.45509 | 27352 ft | 432 kts | 17° |
| 2026-04-23 10:59 | 43.97422 | 4.46958 | 27768 ft | 434 kts | 17° |
| 2026-04-23 10:59 | 44.00261 | 4.48457 | 28189 ft | 437 kts | 18° |
| 2026-04-23 10:59 | 44.03118 | 4.49997 | 28584 ft | 440 kts | 18° |
| 2026-04-23 10:59 | 44.06004 | 4.51563 | 28952 ft | 443 kts | 18° |
| 2026-04-23 11:00 | 44.08865 | 4.53097 | 29296 ft | 446 kts | 17° |
| 2026-04-23 11:00 | 44.11789 | 4.54647 | 29673 ft | 448 kts | 17° |
| 2026-04-23 11:00 | 44.14721 | 4.56196 | 30058 ft | 450 kts | 17° |
| 2026-04-23 11:00 | 44.17628 | 4.57734 | 30419 ft | 451 kts | 17° |
| 2026-04-23 11:01 | 44.20574 | 4.59296 | 30587 ft | 457 kts | 17° |
| 2026-04-23 11:01 | 44.23581 | 4.60894 | 31011 ft | 455 kts | 17° |
| 2026-04-23 11:01 | 44.26533 | 4.62468 | 31568 ft | 450 kts | 17° |
| 2026-04-23 11:01 | 44.29447 | 4.64025 | 32050 ft | 448 kts | 17° |
| 2026-04-23 11:02 | 44.32365 | 4.65583 | 32395 ft | 449 kts | 17° |
| 2026-04-23 11:02 | 44.35252 | 4.67126 | 32727 ft | 449 kts | 17° |
| 2026-04-23 11:02 | 44.38176 | 4.68691 | 33094 ft | 449 kts | 17° |
| 2026-04-23 11:02 | 44.41096 | 4.70256 | 33498 ft | 448 kts | 16° |
| 2026-04-23 11:03 | 44.43998 | 4.71813 | 33915 ft | 447 kts | 16° |
| 2026-04-23 11:03 | 44.46908 | 4.73375 | 34257 ft | 447 kts | 16° |
| 2026-04-23 11:03 | 44.49813 | 4.74937 | 34578 ft | 446 kts | 16° |
| 2026-04-23 11:03 | 44.52723 | 4.76372 | 35002 ft | 438 kts | 9° |
| 2026-04-23 11:04 | 44.55645 | 4.77127 | 35469 ft | 427 kts | 1° |
| 2026-04-23 11:04 | 44.58581 | 4.77290 | 35904 ft | 419 kts | 353° |
| 2026-04-23 11:04 | 44.61463 | 4.76836 | 36246 ft | 414 kts | 347° |
| 2026-04-23 11:04 | 44.64311 | 4.76192 | 36536 ft | 414 kts | 347° |
| 2026-04-23 11:05 | 44.67150 | 4.75523 | 36862 ft | 412 kts | 347° |
| 2026-04-23 11:05 | 44.69973 | 4.74860 | 37233 ft | 409 kts | 347° |
| 2026-04-23 11:05 | 44.72784 | 4.74211 | 37564 ft | 408 kts | 348° |
| 2026-04-23 11:05 | 44.75552 | 4.73582 | 37852 ft | 407 kts | 348° |
| 2026-04-23 11:06 | 44.81137 | 4.72331 | 38262 ft | 407 kts | 348° |
| 2026-04-23 11:06 | 44.83945 | 4.71705 | 38262 ft | 408 kts | 348° |
| 2026-04-23 11:07 | 44.89517 | 4.70466 | 38265 ft | 404 kts | 348° |
| 2026-04-23 11:07 | 44.95059 | 4.69230 | 38255 ft | 402 kts | 348° |
| 2026-04-23 11:08 | 45.00571 | 4.67997 | 38256 ft | 400 kts | 348° |
| 2026-04-23 11:08 | 45.06031 | 4.66772 | 38254 ft | 399 kts | 348° |
| 2026-04-23 11:09 | 45.11496 | 4.65545 | 38250 ft | 398 kts | 348° |
| 2026-04-23 11:09 | 45.16993 | 4.64308 | 38252 ft | 399 kts | 348° |
| 2026-04-23 11:10 | 45.22499 | 4.63060 | 38258 ft | 401 kts | 348° |
| 2026-04-23 11:10 | 45.27998 | 4.61800 | 38258 ft | 403 kts | 348° |
| 2026-04-23 11:11 | 45.33550 | 4.60525 | 38257 ft | 404 kts | 348° |
| 2026-04-23 11:11 | 45.39091 | 4.59250 | 38259 ft | 406 kts | 348° |
| 2026-04-23 11:12 | 45.44694 | 4.57960 | 38259 ft | 408 kts | 348° |
| 2026-04-23 11:12 | 45.50314 | 4.56663 | 38265 ft | 409 kts | 348° |
| 2026-04-23 11:13 | 45.55898 | 4.55372 | 38264 ft | 409 kts | 348° |
| 2026-04-23 11:13 | 45.61537 | 4.54066 | 38260 ft | 408 kts | 348° |
| 2026-04-23 11:14 | 45.67109 | 4.52772 | 38258 ft | 408 kts | 348° |
| 2026-04-23 11:14 | 45.72709 | 4.51469 | 38273 ft | 407 kts | 348° |
| 2026-04-23 11:15 | 45.78301 | 4.50169 | 38274 ft | 406 kts | 348° |
| 2026-04-23 11:15 | 45.83890 | 4.48867 | 38265 ft | 406 kts | 348° |
| 2026-04-23 11:16 | 45.89437 | 4.47573 | 38265 ft | 406 kts | 348° |
| 2026-04-23 11:16 | 45.95010 | 4.46269 | 38268 ft | 405 kts | 348° |
| 2026-04-23 11:17 | 46.00578 | 4.44964 | 38272 ft | 405 kts | 348° |
| 2026-04-23 11:17 | 46.06126 | 4.43660 | 38266 ft | 405 kts | 348° |
| 2026-04-23 11:18 | 46.11697 | 4.42349 | 38273 ft | 405 kts | 348° |
| 2026-04-23 11:18 | 46.17240 | 4.41041 | 38277 ft | 406 kts | 348° |
| 2026-04-23 11:19 | 46.22836 | 4.39719 | 38275 ft | 406 kts | 348° |
| 2026-04-23 11:19 | 46.28405 | 4.38391 | 38270 ft | 407 kts | 347° |
| 2026-04-23 11:20 | 46.33947 | 4.36603 | 38270 ft | 407 kts | 344° |
| 2026-04-23 11:20 | 46.39447 | 4.34609 | 38279 ft | 408 kts | 344° |
| 2026-04-23 11:21 | 46.44941 | 4.32635 | 38272 ft | 409 kts | 344° |
| 2026-04-23 11:21 | 46.50470 | 4.30678 | 38271 ft | 410 kts | 344° |
| 2026-04-23 11:22 | 46.56012 | 4.28727 | 38281 ft | 410 kts | 344° |
| 2026-04-23 11:22 | 46.61581 | 4.26765 | 38270 ft | 411 kts | 344° |
| 2026-04-23 11:23 | 46.67150 | 4.24798 | 38276 ft | 411 kts | 344° |
| 2026-04-23 11:23 | 46.72720 | 4.22826 | 38282 ft | 412 kts | 344° |
| 2026-04-23 11:24 | 46.78295 | 4.20847 | 38280 ft | 412 kts | 344° |
| 2026-04-23 11:24 | 46.83839 | 4.18876 | 38283 ft | 412 kts | 344° |
| 2026-04-23 11:25 | 46.89420 | 4.16887 | 38281 ft | 412 kts | 344° |
| 2026-04-23 11:25 | 46.92214 | 4.15888 | 38152 ft | 415 kts | 346° |
| 2026-04-23 11:25 | 46.95030 | 4.14882 | 38235 ft | 418 kts | 346° |
| 2026-04-23 11:26 | 47.00745 | 4.12838 | 38280 ft | 426 kts | 346° |
| 2026-04-23 11:26 | 47.06517 | 4.10744 | 38286 ft | 432 kts | 344° |
| 2026-04-23 11:27 | 47.12170 | 4.07604 | 38283 ft | 435 kts | 338° |
| 2026-04-23 11:27 | 47.17774 | 4.04203 | 38275 ft | 434 kts | 338° |
| 2026-04-23 11:28 | 47.23299 | 4.00876 | 38271 ft | 428 kts | 339° |
| 2026-04-23 11:28 | 47.28797 | 3.97596 | 38281 ft | 425 kts | 339° |
| 2026-04-23 11:29 | 47.34293 | 3.94320 | 38286 ft | 425 kts | 339° |
| 2026-04-23 11:29 | 47.39787 | 3.91037 | 38285 ft | 426 kts | 339° |
| 2026-04-23 11:30 | 47.45285 | 3.87743 | 38287 ft | 426 kts | 339° |
| 2026-04-23 11:30 | 47.50794 | 3.84435 | 38288 ft | 428 kts | 339° |
| 2026-04-23 11:31 | 47.56281 | 3.81133 | 38285 ft | 429 kts | 339° |
| 2026-04-23 11:31 | 47.61835 | 3.77802 | 38292 ft | 431 kts | 339° |
| 2026-04-23 11:32 | 47.67416 | 3.74454 | 38289 ft | 432 kts | 339° |
| 2026-04-23 11:32 | 47.72983 | 3.71105 | 38294 ft | 434 kts | 339° |
| 2026-04-23 11:33 | 47.77627 | 3.68303 | 38294 ft | 435 kts | 339° |
| 2026-04-23 11:33 | 47.84213 | 3.64322 | 38297 ft | 436 kts | 339° |
| 2026-04-23 11:34 | 47.88897 | 3.61481 | 38296 ft | 437 kts | 339° |
| 2026-04-23 11:34 | 47.95452 | 3.57501 | 38297 ft | 438 kts | 339° |
| 2026-04-23 11:35 | 48.00152 | 3.54630 | 38300 ft | 438 kts | 339° |
| 2026-04-23 11:35 | 48.05789 | 3.51161 | 38303 ft | 438 kts | 339° |
| 2026-04-23 11:36 | 48.11428 | 3.47682 | 38306 ft | 438 kts | 339° |
| 2026-04-23 11:36 | 48.17073 | 3.44193 | 38305 ft | 438 kts | 339° |
| 2026-04-23 11:37 | 48.22723 | 3.40693 | 38308 ft | 438 kts | 339° |
| 2026-04-23 11:37 | 48.28345 | 3.37202 | 38312 ft | 438 kts | 339° |
| 2026-04-23 11:38 | 48.33971 | 3.33701 | 38313 ft | 438 kts | 339° |
| 2026-04-23 11:38 | 48.39601 | 3.30189 | 38316 ft | 438 kts | 338° |
| 2026-04-23 11:39 | 48.45230 | 3.26638 | 38317 ft | 438 kts | 338° |
| 2026-04-23 11:39 | 48.50872 | 3.23034 | 38322 ft | 439 kts | 338° |
| 2026-04-23 11:40 | 48.56469 | 3.19449 | 38323 ft | 439 kts | 338° |
| 2026-04-23 11:40 | 48.62115 | 3.15830 | 38329 ft | 440 kts | 338° |
| 2026-04-23 11:41 | 48.67761 | 3.12204 | 38327 ft | 441 kts | 338° |
| 2026-04-23 11:41 | 48.73422 | 3.08561 | 38329 ft | 441 kts | 338° |
| 2026-04-23 11:42 | 48.79073 | 3.04914 | 38336 ft | 442 kts | 338° |
| 2026-04-23 11:42 | 48.84746 | 3.01205 | 38334 ft | 443 kts | 335° |
| 2026-04-23 11:43 | 48.90125 | 2.96690 | 38341 ft | 444 kts | 331° |
| 2026-04-23 11:43 | 48.95468 | 2.91895 | 38344 ft | 445 kts | 330° |
| 2026-04-23 11:44 | 49.00822 | 2.87121 | 38344 ft | 445 kts | 331° |
| 2026-04-23 11:44 | 49.06198 | 2.82371 | 38353 ft | 446 kts | 331° |
| 2026-04-23 11:45 | 49.11553 | 2.77647 | 38350 ft | 446 kts | 331° |
| 2026-04-23 11:45 | 49.16939 | 2.72884 | 38348 ft | 446 kts | 331° |
| 2026-04-23 11:46 | 49.22328 | 2.68105 | 38351 ft | 447 kts | 331° |
| 2026-04-23 11:46 | 49.27699 | 2.63328 | 38352 ft | 446 kts | 331° |
| 2026-04-23 11:47 | 49.33069 | 2.58539 | 38353 ft | 446 kts | 331° |
| 2026-04-23 11:47 | 49.38452 | 2.53728 | 38361 ft | 446 kts | 331° |
| 2026-04-23 11:48 | 49.43774 | 2.48957 | 38362 ft | 446 kts | 331° |
| 2026-04-23 11:48 | 49.49131 | 2.44145 | 38368 ft | 445 kts | 331° |
| 2026-04-23 11:49 | 49.54167 | 2.38559 | 38383 ft | 446 kts | 320° |
| 2026-04-23 11:49 | 49.58768 | 2.32109 | 38373 ft | 447 kts | 318° |
| 2026-04-23 11:50 | 49.63332 | 2.25669 | 38375 ft | 447 kts | 319° |
| 2026-04-23 11:50 | 49.67953 | 2.19228 | 38371 ft | 447 kts | 319° |
| 2026-04-23 11:51 | 49.72585 | 2.12792 | 38378 ft | 447 kts | 319° |
| 2026-04-23 11:51 | 49.77212 | 2.06347 | 38379 ft | 447 kts | 319° |
| 2026-04-23 11:52 | 49.81802 | 1.99934 | 38379 ft | 447 kts | 319° |
| 2026-04-23 11:52 | 49.86362 | 1.93362 | 38372 ft | 448 kts | 312° |
| 2026-04-23 11:53 | 49.89775 | 1.85294 | 38381 ft | 449 kts | 294° |
| 2026-04-23 11:53 | 49.92105 | 1.76304 | 38383 ft | 449 kts | 291° |
| 2026-04-23 11:54 | 49.94403 | 1.67352 | 38382 ft | 449 kts | 292° |
| 2026-04-23 11:54 | 49.96776 | 1.58356 | 38381 ft | 448 kts | 293° |
| 2026-04-23 11:55 | 49.99957 | 1.50094 | 38386 ft | 445 kts | 310° |
| 2026-04-23 11:55 | 50.04419 | 1.43480 | 38390 ft | 443 kts | 320° |
| 2026-04-23 11:56 | 50.09151 | 1.37204 | 37864 ft | 448 kts | 320° |
| 2026-04-23 11:56 | 50.11506 | 1.34058 | 37344 ft | 445 kts | 320° |
| 2026-04-23 11:56 | 50.13806 | 1.30952 | 36998 ft | 440 kts | 320° |
| 2026-04-23 11:56 | 50.16105 | 1.27825 | 36573 ft | 437 kts | 320° |
| 2026-04-23 11:57 | 50.18389 | 1.24702 | 36180 ft | 433 kts | 320° |
| 2026-04-23 11:57 | 50.20649 | 1.21602 | 35773 ft | 430 kts | 320° |
| 2026-04-23 11:57 | 50.22892 | 1.18521 | 35376 ft | 427 kts | 320° |
| 2026-04-23 11:57 | 50.25112 | 1.15467 | 34979 ft | 424 kts | 319° |
| 2026-04-23 11:58 | 50.27332 | 1.12409 | 34585 ft | 422 kts | 319° |
| 2026-04-23 11:58 | 50.29504 | 1.09416 | 34149 ft | 420 kts | 319° |
| 2026-04-23 11:58 | 50.31702 | 1.06381 | 33708 ft | 417 kts | 319° |
| 2026-04-23 11:58 | 50.33867 | 1.03389 | 33294 ft | 414 kts | 319° |
| 2026-04-23 11:59 | 50.36003 | 1.00435 | 32903 ft | 411 kts | 319° |
| 2026-04-23 11:59 | 50.38136 | 0.97480 | 32516 ft | 408 kts | 319° |
| 2026-04-23 11:59 | 50.40265 | 0.94527 | 32141 ft | 406 kts | 319° |
| 2026-04-23 11:59 | 50.42361 | 0.91617 | 31759 ft | 403 kts | 319° |
| 2026-04-23 12:00 | 50.44468 | 0.88687 | 31378 ft | 401 kts | 319° |
| 2026-04-23 12:00 | 50.46550 | 0.85858 | 31004 ft | 399 kts | 321° |
| 2026-04-23 12:00 | 50.48680 | 0.83036 | 30624 ft | 397 kts | 321° |
| 2026-04-23 12:00 | 50.50789 | 0.80249 | 30203 ft | 395 kts | 321° |
| 2026-04-23 12:01 | 50.52873 | 0.77478 | 29783 ft | 392 kts | 321° |
| 2026-04-23 12:01 | 50.54944 | 0.74714 | 29400 ft | 388 kts | 321° |
| 2026-04-23 12:01 | 50.56997 | 0.71975 | 28997 ft | 385 kts | 321° |
| 2026-04-23 12:01 | 50.59040 | 0.69254 | 28629 ft | 382 kts | 321° |
| 2026-04-23 12:02 | 50.61064 | 0.66557 | 28242 ft | 379 kts | 321° |
| 2026-04-23 12:02 | 50.63047 | 0.63912 | 27871 ft | 376 kts | 321° |
| 2026-04-23 12:02 | 50.65064 | 0.61217 | 27491 ft | 374 kts | 321° |
| 2026-04-23 12:02 | 50.67017 | 0.58603 | 27125 ft | 371 kts | 321° |
| 2026-04-23 12:03 | 50.68984 | 0.55968 | 26754 ft | 369 kts | 321° |
| 2026-04-23 12:03 | 50.70935 | 0.53352 | 26388 ft | 367 kts | 321° |
| 2026-04-23 12:03 | 50.72874 | 0.50746 | 26024 ft | 365 kts | 321° |
| 2026-04-23 12:03 | 50.74806 | 0.48151 | 25654 ft | 363 kts | 321° |
| 2026-04-23 12:04 | 50.76727 | 0.45566 | 25299 ft | 361 kts | 322° |
| 2026-04-23 12:04 | 50.78637 | 0.42994 | 24940 ft | 360 kts | 321° |
| 2026-04-23 12:04 | 50.80539 | 0.40427 | 24538 ft | 359 kts | 321° |
| 2026-04-23 12:04 | 50.82410 | 0.37897 | 24187 ft | 358 kts | 322° |
| 2026-04-23 12:05 | 50.84304 | 0.35333 | 23782 ft | 357 kts | 322° |
| 2026-04-23 12:05 | 50.86194 | 0.32769 | 23396 ft | 355 kts | 322° |
| 2026-04-23 12:05 | 50.88060 | 0.30236 | 23030 ft | 352 kts | 322° |
| 2026-04-23 12:05 | 50.88695 | 0.29374 | 22912 ft | 351 kts | 322° |
| 2026-04-23 12:06 | 50.90886 | 0.26394 | 22482 ft | 348 kts | 322° |
| 2026-04-23 12:06 | 50.92716 | 0.23904 | 22150 ft | 345 kts | 322° |
| 2026-04-23 12:06 | 50.96320 | 0.18991 | 21462 ft | 340 kts | 322° |
| 2026-04-23 12:07 | 50.98112 | 0.16546 | 21119 ft | 338 kts | 322° |
| 2026-04-23 12:07 | 50.99887 | 0.14119 | 20780 ft | 335 kts | 323° |
| 2026-04-23 12:07 | 51.01653 | 0.11711 | 20427 ft | 333 kts | 323° |
| 2026-04-23 12:07 | 51.03478 | 0.09488 | 20270 ft | 325 kts | 328° |
| 2026-04-23 12:08 | 51.05321 | 0.07451 | 20130 ft | 320 kts | 329° |
| 2026-04-23 12:08 | 51.06542 | 0.06133 | 20036 ft | 322 kts | 329° |
| 2026-04-23 12:08 | 51.08360 | 0.04177 | 19907 ft | 327 kts | 329° |
| 2026-04-23 12:08 | 51.10927 | 0.01394 | 19719 ft | 330 kts | 329° |
| 2026-04-23 12:09 | 51.12817 | -0.00678 | 19546 ft | 327 kts | 329° |
| 2026-04-23 12:09 | 51.14651 | -0.02701 | 19405 ft | 325 kts | 329° |
| 2026-04-23 12:09 | 51.15885 | -0.04066 | 19310 ft | 324 kts | 329° |
| 2026-04-23 12:09 | 51.17729 | -0.06111 | 19152 ft | 322 kts | 329° |
| 2026-04-23 12:10 | 51.19568 | -0.08155 | 19013 ft | 321 kts | 329° |
| 2026-04-23 12:10 | 51.21397 | -0.10190 | 18882 ft | 320 kts | 329° |
| 2026-04-23 12:10 | 51.23221 | -0.12222 | 18620 ft | 320 kts | 329° |
| 2026-04-23 12:10 | 51.25040 | -0.14250 | 18245 ft | 319 kts | 329° |
| 2026-04-23 12:11 | 51.26868 | -0.16290 | 17813 ft | 320 kts | 329° |
| 2026-04-23 12:11 | 51.28686 | -0.18322 | 17461 ft | 319 kts | 329° |
| 2026-04-23 12:11 | 51.30498 | -0.20351 | 17149 ft | 317 kts | 329° |
| 2026-04-23 12:11 | 51.32299 | -0.22367 | 16812 ft | 315 kts | 329° |
| 2026-04-23 12:12 | 51.34079 | -0.24365 | 16327 ft | 311 kts | 329° |
| 2026-04-23 12:12 | 51.35834 | -0.26334 | 15750 ft | 311 kts | 328° |
| 2026-04-23 12:12 | 51.37626 | -0.28346 | 15202 ft | 310 kts | 328° |
| 2026-04-23 12:12 | 51.39363 | -0.30298 | 14725 ft | 308 kts | 328° |
| 2026-04-23 12:13 | 51.41117 | -0.32272 | 14224 ft | 306 kts | 328° |
| 2026-04-23 12:13 | 51.42857 | -0.34232 | 13676 ft | 305 kts | 328° |
| 2026-04-23 12:13 | 51.44600 | -0.36141 | 13159 ft | 302 kts | 330° |
| 2026-04-23 12:13 | 51.46362 | -0.37937 | 12659 ft | 299 kts | 331° |
| 2026-04-23 12:14 | 51.48125 | -0.39698 | 12151 ft | 298 kts | 331° |
| 2026-04-23 12:14 | 51.49881 | -0.41452 | 11658 ft | 296 kts | 330° |
| 2026-04-23 12:14 | 51.51622 | -0.43198 | 11225 ft | 293 kts | 330° |
| 2026-04-23 12:14 | 51.53344 | -0.44931 | 10810 ft | 290 kts | 330° |
| 2026-04-23 12:15 | 51.55040 | -0.46644 | 10419 ft | 286 kts | 330° |
| 2026-04-23 12:15 | 51.56719 | -0.48345 | 9913 ft | 285 kts | 330° |
| 2026-04-23 12:15 | 51.58397 | -0.50050 | 9409 ft | 284 kts | 330° |
| 2026-04-23 12:15 | 51.60043 | -0.51723 | 8965 ft | 281 kts | 330° |
| 2026-04-23 12:16 | 51.61707 | -0.53419 | 8533 ft | 281 kts | 330° |
| 2026-04-23 12:16 | 51.63356 | -0.55098 | 8092 ft | 281 kts | 330° |
| 2026-04-23 12:16 | 51.65009 | -0.56782 | 7704 ft | 278 kts | 329° |
| 2026-04-23 12:16 | 51.66642 | -0.58450 | 7365 ft | 278 kts | 330° |
| 2026-04-23 12:17 | 51.68132 | -0.59977 | 7038 ft | 282 kts | 329° |
| 2026-04-23 12:17 | 51.69772 | -0.61655 | 6719 ft | 282 kts | 329° |
| 2026-04-23 12:17 | 51.71443 | -0.63358 | 6174 ft | 289 kts | 329° |
| 2026-04-23 12:17 | 51.73177 | -0.65133 | 5683 ft | 296 kts | 329° |
| 2026-04-23 12:18 | 51.74927 | -0.66932 | 5302 ft | 296 kts | 329° |
| 2026-04-23 12:18 | 51.76658 | -0.68587 | 4875 ft | 290 kts | 340° |
| 2026-04-23 12:18 | 51.78580 | -0.69144 | 4568 ft | 273 kts | 7° |
| 2026-04-23 12:18 | 51.80354 | -0.68352 | 4262 ft | 261 kts | 33° |
| 2026-04-23 12:19 | 51.81696 | -0.66523 | 4022 ft | 245 kts | 58° |
| 2026-04-23 12:19 | 51.82520 | -0.64196 | 3763 ft | 238 kts | 68° |
| 2026-04-23 12:19 | 51.83156 | -0.61767 | 3518 ft | 234 kts | 73° |
| 2026-04-23 12:19 | 51.83633 | -0.59289 | 3225 ft | 230 kts | 76° |
| 2026-04-23 12:20 | 51.84049 | -0.56798 | 2897 ft | 227 kts | 77° |
| 2026-04-23 12:20 | 51.84448 | -0.54425 | 2597 ft | 211 kts | 76° |
| 2026-04-23 12:20 | 51.84826 | -0.52248 | 2360 ft | 193 kts | 75° |
| 2026-04-23 12:20 | 51.85157 | -0.50204 | 2054 ft | 181 kts | 77° |
| 2026-04-23 12:21 | 51.85478 | -0.48321 | 1815 ft | 168 kts | 73° |
| 2026-04-23 12:21 | 51.85782 | -0.46619 | 1610 ft | 147 kts | 74° |
| 2026-04-23 12:21 | 51.86035 | -0.45163 | 1428 ft | 124 kts | 75° |
| 2026-04-23 12:21 | 51.86265 | -0.43797 | 1266 ft | 127 kts | 75° |
| 2026-04-23 12:22 | 51.86492 | -0.42450 | 1049 ft | 123 kts | 74° |
| 2026-04-23 12:22 | 51.86721 | -0.41156 | 889 ft | 117 kts | 76° |
| 2026-04-23 12:22 | 51.86933 | -0.39894 | 728 ft | 128 kts | 75° |
| 2026-04-23 12:22 | 51.87171 | -0.38532 | 571 ft | 124 kts | 75° |
| 2026-04-23 12:23 | 51.87388 | -0.37276 | 520 ft | 102 kts | 75° |
| 2026-04-23 12:23 | 51.87537 | -0.36412 | 521 ft | 58 kts | 74° |
| 2026-04-23 12:23 | 51.87604 | -0.36023 | 515 ft | 14 kts | 75° |
| 2026-04-23 12:23 | 51.87654 | -0.35910 | 515 ft | 13 kts | 13° |
| 2026-04-23 12:24 | 51.87737 | -0.35955 | 515 ft | 13 kts | 332° |
| 2026-04-23 12:24 | 51.87780 | -0.36069 | 517 ft | 12 kts | 270° |
| 2026-04-23 12:24 | 51.87761 | -0.36202 | 517 ft | 12 kts | 255° |
| 2026-04-23 12:24 | 51.87739 | -0.36332 | 517 ft | 12 kts | 254° |
| 2026-04-23 12:25 | 51.87717 | -0.36456 | 518 ft | 11 kts | 253° |
| 2026-04-23 12:25 | 51.87695 | -0.36578 | 520 ft | 11 kts | 254° |
| 2026-04-23 12:25 | 51.87676 | -0.36698 | 521 ft | 11 kts | 255° |
| 2026-04-23 12:25 | 51.87656 | -0.36814 | 523 ft | 11 kts | 254° |
| 2026-04-23 12:26 | 51.87646 | -0.36926 | 524 ft | 10 kts | 303° |
| 2026-04-23 12:26 | 51.87723 | -0.36976 | 520 ft | 14 kts | 342° |
| 2026-04-23 12:26 | 51.87786 | -0.37036 | 515 ft | 5 kts | 275° |
| 2026-04-23 12:26 | 51.87769 | -0.37079 | 515 ft | 5 kts | 234° |
| 2026-04-23 12:27 | 51.87759 | -0.37118 | 515 ft | 0 kts | 251° |